sensor_id;sensor_type;location;lat;lon;timestamp;P1;durP1;ratioP1;P2;durP2;ratioP2
46339;SDS011;47273;49.274;8.708;2022-08-19T03:32:03;31.35;;;22.60;;
46339;SDS011;47273;49.274;8.708;2022-08-19T03:34:30;32.25;;;24.40;;
46339;SDS011;47273;49.274;8.708;2022-08-19T03:36:58;32.17;;;24.73;;
46339;SDS011;47273;49.274;8.708;2022-08-19T03:39:28;31.38;;;23.40;;
46339;SDS011;47273;49.274;8.708;2022-08-19T03:41:54;34.75;;;24.85;;
46339;SDS011;47273;49.274;8.708;2022-08-19T03:44:27;38.50;;;25.60;;
46339;SDS011;47273;49.274;8.708;2022-08-19T03:46:55;27.50;;;23.35;;
46339;SDS011;47273;49.274;8.708;2022-08-19T03:49:23;33.95;;;25.77;;
46339;SDS011;47273;49.274;8.708;2022-08-19T03:51:52;33.03;;;26.17;;
46339;SDS011;47273;49.274;8.708;2022-08-19T03:54:19;33.83;;;26.95;;
46339;SDS011;47273;49.274;8.708;2022-08-19T03:56:48;35.42;;;27.35;;
46339;SDS011;47273;49.274;8.708;2022-08-19T03:59:21;35.30;;;26.13;;
46339;SDS011;47273;49.274;8.708;2022-08-19T04:01:50;35.10;;;27.33;;
46339;SDS011;47273;49.274;8.708;2022-08-19T04:04:16;30.58;;;25.42;;
46339;SDS011;47273;49.274;8.708;2022-08-19T04:06:42;32.50;;;26.05;;
46339;SDS011;47273;49.274;8.708;2022-08-19T04:09:09;34.20;;;25.40;;
46339;SDS011;47273;49.274;8.708;2022-08-19T04:11:38;37.60;;;26.02;;
46339;SDS011;47273;49.274;8.708;2022-08-19T04:14:07;35.85;;;24.67;;
46339;SDS011;47273;49.274;8.708;2022-08-19T04:16:34;37.60;;;26.73;;
46339;SDS011;47273;49.274;8.708;2022-08-19T04:19:01;37.10;;;24.60;;
46339;SDS011;47273;49.274;8.708;2022-08-19T04:21:28;41.72;;;25.58;;
46339;SDS011;47273;49.274;8.708;2022-08-19T04:23:54;34.20;;;25.20;;
46339;SDS011;47273;49.274;8.708;2022-08-19T04:26:22;35.85;;;25.58;;
46339;SDS011;47273;49.274;8.708;2022-08-19T04:28:51;36.20;;;25.05;;
46339;SDS011;47273;49.274;8.708;2022-08-19T04:31:18;34.00;;;25.10;;
46339;SDS011;47273;49.274;8.708;2022-08-19T04:33:46;34.10;;;24.17;;
46339;SDS011;47273;49.274;8.708;2022-08-19T04:36:16;30.15;;;23.80;;
46339;SDS011;47273;49.274;8.708;2022-08-19T04:38:45;35.30;;;25.30;;
46339;SDS011;47273;49.274;8.708;2022-08-19T04:41:12;37.72;;;24.98;;
46339;SDS011;47273;49.274;8.708;2022-08-19T04:43:56;35.05;;;25.52;;
46339;SDS011;47273;49.274;8.708;2022-08-19T04:46:21;33.30;;;26.17;;
46339;SDS011;47273;49.274;8.708;2022-08-19T04:48:47;34.03;;;24.98;;
46339;SDS011;47273;49.274;8.708;2022-08-19T04:51:13;36.97;;;25.58;;
46339;SDS011;47273;49.274;8.708;2022-08-19T04:53:39;39.42;;;24.92;;
46339;SDS011;47273;49.274;8.708;2022-08-19T04:56:11;33.42;;;24.80;;
46339;SDS011;47273;49.274;8.708;2022-08-19T04:58:39;32.28;;;23.88;;
46339;SDS011;47273;49.274;8.708;2022-08-19T05:01:08;34.28;;;25.10;;
46339;SDS011;47273;49.274;8.708;2022-08-19T05:03:36;35.65;;;24.35;;
46339;SDS011;47273;49.274;8.708;2022-08-19T05:06:06;34.28;;;25.35;;
46339;SDS011;47273;49.274;8.708;2022-08-19T05:08:37;36.42;;;26.15;;
46339;SDS011;47273;49.274;8.708;2022-08-19T05:11:14;34.70;;;25.45;;
46339;SDS011;47273;49.274;8.708;2022-08-19T05:13:42;35.90;;;26.30;;
46339;SDS011;47273;49.274;8.708;2022-08-19T05:16:09;34.85;;;26.83;;
46339;SDS011;47273;49.274;8.708;2022-08-19T05:18:36;37.33;;;25.50;;
46339;SDS011;47273;49.274;8.708;2022-08-19T05:21:20;31.95;;;24.05;;
46339;SDS011;47273;49.274;8.708;2022-08-19T05:24:05;36.92;;;26.40;;
46339;SDS011;47273;49.274;8.708;2022-08-19T05:26:35;35.42;;;26.70;;
46339;SDS011;47273;49.274;8.708;2022-08-19T05:29:05;38.25;;;26.88;;
46339;SDS011;47273;49.274;8.708;2022-08-19T05:31:32;35.90;;;25.23;;
46339;SDS011;47273;49.274;8.708;2022-08-19T05:33:59;38.83;;;25.30;;
46339;SDS011;47273;49.274;8.708;2022-08-19T05:36:25;35.90;;;26.90;;
46339;SDS011;47273;49.274;8.708;2022-08-19T05:38:52;39.30;;;27.00;;
46339;SDS011;47273;49.274;8.708;2022-08-19T05:41:19;35.53;;;25.67;;
46339;SDS011;47273;49.274;8.708;2022-08-19T05:43:45;39.88;;;25.42;;
46339;SDS011;47273;49.274;8.708;2022-08-19T05:46:18;37.65;;;26.27;;
46339;SDS011;47273;49.274;8.708;2022-08-19T05:48:44;42.92;;;26.80;;
46339;SDS011;47273;49.274;8.708;2022-08-19T05:51:11;38.60;;;27.50;;
46339;SDS011;47273;49.274;8.708;2022-08-19T05:53:37;39.75;;;27.02;;
46339;SDS011;47273;49.274;8.708;2022-08-19T05:56:03;38.10;;;25.80;;
46339;SDS011;47273;49.274;8.708;2022-08-19T05:58:30;36.17;;;25.95;;
46339;SDS011;47273;49.274;8.708;2022-08-19T06:00:57;37.10;;;25.60;;
46339;SDS011;47273;49.274;8.708;2022-08-19T06:03:23;40.15;;;25.75;;
46339;SDS011;47273;49.274;8.708;2022-08-19T06:05:49;35.95;;;25.80;;
46339;SDS011;47273;49.274;8.708;2022-08-19T06:08:14;34.40;;;24.13;;
46339;SDS011;47273;49.274;8.708;2022-08-19T06:10:43;40.25;;;25.35;;
46339;SDS011;47273;49.274;8.708;2022-08-19T06:13:08;36.78;;;24.83;;
46339;SDS011;47273;49.274;8.708;2022-08-19T06:15:34;33.83;;;25.92;;
46339;SDS011;47273;49.274;8.708;2022-08-19T06:18:00;36.97;;;26.35;;
46339;SDS011;47273;49.274;8.708;2022-08-19T06:20:26;35.55;;;25.73;;
46339;SDS011;47273;49.274;8.708;2022-08-19T06:22:51;29.92;;;23.60;;
46339;SDS011;47273;49.274;8.708;2022-08-19T06:25:17;32.97;;;23.50;;
46339;SDS011;47273;49.274;8.708;2022-08-19T06:27:43;33.42;;;23.80;;
46339;SDS011;47273;49.274;8.708;2022-08-19T06:30:10;34.05;;;23.60;;
46339;SDS011;47273;49.274;8.708;2022-08-19T06:32:37;30.20;;;22.45;;
46339;SDS011;47273;49.274;8.708;2022-08-19T06:35:05;31.50;;;23.15;;
46339;SDS011;47273;49.274;8.708;2022-08-19T06:37:31;31.27;;;23.27;;
46339;SDS011;47273;49.274;8.708;2022-08-19T06:39:57;37.15;;;23.98;;
46339;SDS011;47273;49.274;8.708;2022-08-19T06:42:23;31.30;;;23.02;;
46339;SDS011;47273;49.274;8.708;2022-08-19T06:44:48;34.05;;;24.20;;
46339;SDS011;47273;49.274;8.708;2022-08-19T06:47:18;29.88;;;23.63;;
46339;SDS011;47273;49.274;8.708;2022-08-19T06:49:45;33.13;;;23.20;;
46339;SDS011;47273;49.274;8.708;2022-08-19T06:52:11;32.58;;;22.75;;
46339;SDS011;47273;49.274;8.708;2022-08-19T06:54:38;30.48;;;23.33;;
46339;SDS011;47273;49.274;8.708;2022-08-19T06:57:04;37.78;;;23.45;;
46339;SDS011;47273;49.274;8.708;2022-08-19T06:59:32;28.20;;;22.65;;
46339;SDS011;47273;49.274;8.708;2022-08-19T07:01:59;30.88;;;23.23;;
46339;SDS011;47273;49.274;8.708;2022-08-19T07:04:29;28.25;;;23.15;;
46339;SDS011;47273;49.274;8.708;2022-08-19T07:07:01;27.60;;;21.98;;
46339;SDS011;47273;49.274;8.708;2022-08-19T07:09:32;27.55;;;21.88;;
46339;SDS011;47273;49.274;8.708;2022-08-19T07:11:58;25.63;;;20.95;;
46339;SDS011;47273;49.274;8.708;2022-08-19T07:14:27;25.77;;;21.10;;
46339;SDS011;47273;49.274;8.708;2022-08-19T07:16:53;30.27;;;20.52;;
46339;SDS011;47273;49.274;8.708;2022-08-19T07:19:21;27.98;;;21.42;;
46339;SDS011;47273;49.274;8.708;2022-08-19T07:21:48;24.63;;;20.23;;
46339;SDS011;47273;49.274;8.708;2022-08-19T07:24:18;26.88;;;20.98;;
46339;SDS011;47273;49.274;8.708;2022-08-19T07:26:44;28.75;;;20.55;;
46339;SDS011;47273;49.274;8.708;2022-08-19T07:29:11;38.45;;;20.77;;
46339;SDS011;47273;49.274;8.708;2022-08-19T07:31:38;28.13;;;21.58;;
46339;SDS011;47273;49.274;8.708;2022-08-19T07:34:07;27.42;;;21.08;;
46339;SDS011;47273;49.274;8.708;2022-08-19T07:36:36;28.42;;;21.77;;
46339;SDS011;47273;49.274;8.708;2022-08-19T07:39:06;22.90;;;19.80;;
46339;SDS011;47273;49.274;8.708;2022-08-19T07:41:36;25.98;;;20.92;;
46339;SDS011;47273;49.274;8.708;2022-08-19T07:44:02;26.38;;;20.98;;
46339;SDS011;47273;49.274;8.708;2022-08-19T07:46:30;24.30;;;19.92;;
46339;SDS011;47273;49.274;8.708;2022-08-19T07:48:57;27.88;;;20.95;;
46339;SDS011;47273;49.274;8.708;2022-08-19T07:51:23;22.73;;;19.33;;
46339;SDS011;47273;49.274;8.708;2022-08-19T07:53:51;25.85;;;18.75;;
46339;SDS011;47273;49.274;8.708;2022-08-19T07:56:18;27.75;;;19.88;;
46339;SDS011;47273;49.274;8.708;2022-08-19T07:58:46;22.17;;;18.80;;
46339;SDS011;47273;49.274;8.708;2022-08-19T08:01:14;23.25;;;20.33;;
46339;SDS011;47273;49.274;8.708;2022-08-19T08:04:00;21.95;;;19.52;;
46339;SDS011;47273;49.274;8.708;2022-08-19T08:06:46;23.90;;;19.77;;
46339;SDS011;47273;49.274;8.708;2022-08-19T08:09:32;22.23;;;19.13;;
46339;SDS011;47273;49.274;8.708;2022-08-19T08:12:01;20.90;;;18.27;;
46339;SDS011;47273;49.274;8.708;2022-08-19T08:14:36;29.17;;;19.67;;
46339;SDS011;47273;49.274;8.708;2022-08-19T08:17:05;23.55;;;19.17;;
46339;SDS011;47273;49.274;8.708;2022-08-19T08:19:33;29.38;;;19.38;;
46339;SDS011;47273;49.274;8.708;2022-08-19T08:22:00;23.85;;;18.58;;
46339;SDS011;47273;49.274;8.708;2022-08-19T08:24:27;28.88;;;19.70;;
46339;SDS011;47273;49.274;8.708;2022-08-19T08:27:06;24.45;;;18.95;;
46339;SDS011;47273;49.274;8.708;2022-08-19T08:29:31;23.23;;;18.55;;
46339;SDS011;47273;49.274;8.708;2022-08-19T08:31:58;28.48;;;20.30;;
46339;SDS011;47273;49.274;8.708;2022-08-19T08:34:23;22.63;;;18.55;;
46339;SDS011;47273;49.274;8.708;2022-08-19T08:36:49;21.67;;;18.13;;
46339;SDS011;47273;49.274;8.708;2022-08-19T08:39:17;21.05;;;18.45;;
46339;SDS011;47273;49.274;8.708;2022-08-19T08:44:20;20.92;;;18.77;;
46339;SDS011;47273;49.274;8.708;2022-08-19T08:47:12;19.08;;;17.02;;
46339;SDS011;47273;49.274;8.708;2022-08-19T08:52:33;20.20;;;18.10;;
46339;SDS011;47273;49.274;8.708;2022-08-19T08:55:05;19.35;;;16.98;;
46339;SDS011;47273;49.274;8.708;2022-08-19T08:57:36;18.75;;;16.88;;
46339;SDS011;47273;49.274;8.708;2022-08-19T09:03:28;18.38;;;16.45;;
46339;SDS011;47273;49.274;8.708;2022-08-19T09:09:12;17.50;;;15.40;;
46339;SDS011;47273;49.274;8.708;2022-08-19T09:12:09;17.73;;;15.93;;
46339;SDS011;47273;49.274;8.708;2022-08-19T09:31:29;19.75;;;15.63;;
46339;SDS011;47273;49.274;8.708;2022-08-19T09:33:57;16.83;;;13.32;;
46339;SDS011;47273;49.274;8.708;2022-08-19T09:36:25;14.68;;;13.40;;
46339;SDS011;47273;49.274;8.708;2022-08-19T09:38:54;15.88;;;14.25;;
46339;SDS011;47273;49.274;8.708;2022-08-19T09:41:22;16.80;;;15.15;;
46339;SDS011;47273;49.274;8.708;2022-08-19T09:43:50;15.95;;;14.45;;
46339;SDS011;47273;49.274;8.708;2022-08-19T09:46:17;17.45;;;15.57;;
46339;SDS011;47273;49.274;8.708;2022-08-19T09:48:45;15.98;;;14.52;;
46339;SDS011;47273;49.274;8.708;2022-08-19T09:51:16;15.38;;;13.98;;
46339;SDS011;47273;49.274;8.708;2022-08-19T09:53:45;15.13;;;13.75;;
46339;SDS011;47273;49.274;8.708;2022-08-19T09:56:12;16.20;;;14.50;;
46339;SDS011;47273;49.274;8.708;2022-08-19T09:58:38;17.30;;;13.77;;
46339;SDS011;47273;49.274;8.708;2022-08-19T10:01:06;16.52;;;14.05;;
46339;SDS011;47273;49.274;8.708;2022-08-19T10:03:32;14.55;;;13.20;;
46339;SDS011;47273;49.274;8.708;2022-08-19T10:06:00;15.05;;;13.57;;
46339;SDS011;47273;49.274;8.708;2022-08-19T10:08:29;14.50;;;13.20;;
46339;SDS011;47273;49.274;8.708;2022-08-19T10:10:56;17.17;;;15.57;;
46339;SDS011;47273;49.274;8.708;2022-08-19T10:13:24;15.52;;;14.23;;
46339;SDS011;47273;49.274;8.708;2022-08-19T10:15:52;15.48;;;14.07;;
46339;SDS011;47273;49.274;8.708;2022-08-19T10:18:21;15.95;;;14.00;;
46339;SDS011;47273;49.274;8.708;2022-08-19T10:20:48;15.52;;;14.15;;
46339;SDS011;47273;49.274;8.708;2022-08-19T10:23:16;14.65;;;13.25;;
46339;SDS011;47273;49.274;8.708;2022-08-19T10:25:42;14.90;;;13.43;;
46339;SDS011;47273;49.274;8.708;2022-08-19T10:28:08;14.68;;;13.43;;
46339;SDS011;47273;49.274;8.708;2022-08-19T10:30:37;15.27;;;13.98;;
46339;SDS011;47273;49.274;8.708;2022-08-19T10:33:03;15.05;;;13.85;;
46339;SDS011;47273;49.274;8.708;2022-08-19T10:35:35;15.30;;;13.90;;
46339;SDS011;47273;49.274;8.708;2022-08-19T10:38:01;15.18;;;13.88;;
46339;SDS011;47273;49.274;8.708;2022-08-19T10:40:28;15.25;;;13.65;;
46339;SDS011;47273;49.274;8.708;2022-08-19T10:42:54;17.55;;;14.88;;
46339;SDS011;47273;49.274;8.708;2022-08-19T10:45:21;16.08;;;14.65;;
46339;SDS011;47273;49.274;8.708;2022-08-19T10:47:51;16.30;;;14.77;;
46339;SDS011;47273;49.274;8.708;2022-08-19T10:50:17;15.07;;;13.85;;
46339;SDS011;47273;49.274;8.708;2022-08-19T10:53:06;15.23;;;13.75;;
46339;SDS011;47273;49.274;8.708;2022-08-19T10:55:34;16.17;;;14.70;;
46339;SDS011;47273;49.274;8.708;2022-08-19T10:58:27;16.33;;;14.57;;
46339;SDS011;47273;49.274;8.708;2022-08-19T11:00:54;13.85;;;12.52;;
46339;SDS011;47273;49.274;8.708;2022-08-19T11:03:21;14.48;;;12.98;;
46339;SDS011;47273;49.274;8.708;2022-08-19T11:05:56;15.00;;;13.55;;
46339;SDS011;47273;49.274;8.708;2022-08-19T11:13:25;14.68;;;13.48;;
46339;SDS011;47273;49.274;8.708;2022-08-19T11:18:37;15.10;;;13.43;;
46339;SDS011;47273;49.274;8.708;2022-08-19T11:21:08;14.88;;;13.30;;
46339;SDS011;47273;49.274;8.708;2022-08-19T11:23:41;19.45;;;14.40;;
46339;SDS011;47273;49.274;8.708;2022-08-19T11:26:08;15.70;;;14.30;;
46339;SDS011;47273;49.274;8.708;2022-08-19T11:28:34;16.17;;;14.57;;
46339;SDS011;47273;49.274;8.708;2022-08-19T11:31:00;15.35;;;13.93;;
46339;SDS011;47273;49.274;8.708;2022-08-19T11:33:28;16.10;;;14.60;;
46339;SDS011;47273;49.274;8.708;2022-08-19T11:35:57;15.90;;;14.45;;
46339;SDS011;47273;49.274;8.708;2022-08-19T11:38:29;15.48;;;14.00;;
46339;SDS011;47273;49.274;8.708;2022-08-19T11:40:59;15.48;;;14.18;;
46339;SDS011;47273;49.274;8.708;2022-08-19T11:43:29;14.98;;;13.77;;
46339;SDS011;47273;49.274;8.708;2022-08-19T11:45:56;17.20;;;15.60;;
46339;SDS011;47273;49.274;8.708;2022-08-19T11:48:23;16.92;;;15.43;;
46339;SDS011;47273;49.274;8.708;2022-08-19T11:50:49;16.77;;;15.48;;
46339;SDS011;47273;49.274;8.708;2022-08-19T11:53:19;17.13;;;15.63;;
46339;SDS011;47273;49.274;8.708;2022-08-19T11:55:45;19.40;;;17.50;;
46339;SDS011;47273;49.274;8.708;2022-08-19T11:58:16;19.15;;;17.20;;
46339;SDS011;47273;49.274;8.708;2022-08-19T12:00:43;18.42;;;16.88;;
46339;SDS011;47273;49.274;8.708;2022-08-19T12:03:10;17.50;;;15.80;;
46339;SDS011;47273;49.274;8.708;2022-08-19T12:05:40;19.45;;;17.75;;
46339;SDS011;47273;49.274;8.708;2022-08-19T12:08:07;17.52;;;15.93;;
46339;SDS011;47273;49.274;8.708;2022-08-19T12:10:33;18.33;;;16.83;;
46339;SDS011;47273;49.274;8.708;2022-08-19T12:13:00;18.65;;;17.05;;
46339;SDS011;47273;49.274;8.708;2022-08-19T12:15:27;17.58;;;15.98;;
46339;SDS011;47273;49.274;8.708;2022-08-19T12:17:54;16.85;;;15.48;;
46339;SDS011;47273;49.274;8.708;2022-08-19T12:20:21;17.73;;;16.20;;
46339;SDS011;47273;49.274;8.708;2022-08-19T12:22:48;17.38;;;15.68;;
46339;SDS011;47273;49.274;8.708;2022-08-19T12:25:15;18.00;;;16.30;;
46339;SDS011;47273;49.274;8.708;2022-08-19T12:27:41;17.35;;;15.70;;
46339;SDS011;47273;49.274;8.708;2022-08-19T12:30:08;16.40;;;14.85;;
46339;SDS011;47273;49.274;8.708;2022-08-19T12:32:36;17.10;;;15.40;;
46339;SDS011;47273;49.274;8.708;2022-08-19T12:35:02;15.82;;;14.45;;
46339;SDS011;47273;49.274;8.708;2022-08-19T12:37:28;15.70;;;14.20;;
46339;SDS011;47273;49.274;8.708;2022-08-19T12:39:54;17.23;;;14.73;;
46339;SDS011;47273;49.274;8.708;2022-08-19T12:42:20;16.70;;;15.15;;
46339;SDS011;47273;49.274;8.708;2022-08-19T12:44:47;15.82;;;14.48;;
46339;SDS011;47273;49.274;8.708;2022-08-19T12:47:13;16.83;;;15.43;;
46339;SDS011;47273;49.274;8.708;2022-08-19T12:49:38;15.43;;;13.88;;
46339;SDS011;47273;49.274;8.708;2022-08-19T12:52:05;15.95;;;14.65;;
46339;SDS011;47273;49.274;8.708;2022-08-19T12:54:33;15.57;;;14.18;;
46339;SDS011;47273;49.274;8.708;2022-08-19T12:56:59;16.08;;;14.68;;
46339;SDS011;47273;49.274;8.708;2022-08-19T12:59:26;16.02;;;14.63;;
46339;SDS011;47273;49.274;8.708;2022-08-19T13:01:52;15.60;;;14.05;;
46339;SDS011;47273;49.274;8.708;2022-08-19T13:04:18;15.98;;;14.48;;
46339;SDS011;47273;49.274;8.708;2022-08-19T13:06:43;16.55;;;15.02;;
46339;SDS011;47273;49.274;8.708;2022-08-19T13:09:09;16.65;;;15.15;;
46339;SDS011;47273;49.274;8.708;2022-08-19T13:11:36;16.60;;;15.18;;
46339;SDS011;47273;49.274;8.708;2022-08-19T13:14:02;16.35;;;14.73;;
46339;SDS011;47273;49.274;8.708;2022-08-19T13:16:28;16.20;;;14.80;;
46339;SDS011;47273;49.274;8.708;2022-08-19T13:18:54;17.70;;;16.02;;
46339;SDS011;47273;49.274;8.708;2022-08-19T13:21:22;16.77;;;15.10;;
46339;SDS011;47273;49.274;8.708;2022-08-19T13:23:53;19.13;;;15.30;;
46339;SDS011;47273;49.274;8.708;2022-08-19T13:26:19;16.80;;;15.40;;
46339;SDS011;47273;49.274;8.708;2022-08-19T13:28:45;15.50;;;13.95;;
46339;SDS011;47273;49.274;8.708;2022-08-19T13:31:31;15.48;;;14.18;;
46339;SDS011;47273;49.274;8.708;2022-08-19T13:34:18;15.65;;;14.35;;
46339;SDS011;47273;49.274;8.708;2022-08-19T13:36:50;16.42;;;14.63;;
46339;SDS011;47273;49.274;8.708;2022-08-19T13:39:18;15.30;;;13.90;;
46339;SDS011;47273;49.274;8.708;2022-08-19T13:41:45;15.00;;;13.73;;
46339;SDS011;47273;49.274;8.708;2022-08-19T13:44:18;15.30;;;14.10;;
46339;SDS011;47273;49.274;8.708;2022-08-19T13:46:45;14.20;;;13.07;;
46339;SDS011;47273;49.274;8.708;2022-08-19T13:49:15;15.35;;;13.80;;
46339;SDS011;47273;49.274;8.708;2022-08-19T13:51:43;14.07;;;12.90;;
46339;SDS011;47273;49.274;8.708;2022-08-19T13:54:10;14.02;;;12.93;;
46339;SDS011;47273;49.274;8.708;2022-08-19T13:56:41;15.45;;;14.07;;
46339;SDS011;47273;49.274;8.708;2022-08-19T13:59:10;14.27;;;13.13;;
46339;SDS011;47273;49.274;8.708;2022-08-19T14:01:37;13.52;;;12.45;;
46339;SDS011;47273;49.274;8.708;2022-08-19T14:04:03;13.70;;;12.40;;
46339;SDS011;47273;49.274;8.708;2022-08-19T14:06:31;13.25;;;12.05;;
46339;SDS011;47273;49.274;8.708;2022-08-19T14:08:58;13.68;;;12.57;;
46339;SDS011;47273;49.274;8.708;2022-08-19T14:11:23;13.50;;;12.30;;
46339;SDS011;47273;49.274;8.708;2022-08-19T14:13:49;13.70;;;12.40;;
46339;SDS011;47273;49.274;8.708;2022-08-19T14:16:15;12.68;;;11.68;;
46339;SDS011;47273;49.274;8.708;2022-08-19T14:18:41;12.95;;;11.70;;
46339;SDS011;47273;49.274;8.708;2022-08-19T14:21:08;12.60;;;11.57;;
46339;SDS011;47273;49.274;8.708;2022-08-19T14:23:45;13.15;;;11.80;;
46339;SDS011;47273;49.274;8.708;2022-08-19T14:26:12;13.07;;;11.77;;
46339;SDS011;47273;49.274;8.708;2022-08-19T14:28:40;13.07;;;11.80;;
46339;SDS011;47273;49.274;8.708;2022-08-19T14:31:11;13.40;;;12.23;;
46339;SDS011;47273;49.274;8.708;2022-08-19T14:33:41;12.88;;;11.68;;
46339;SDS011;47273;49.274;8.708;2022-08-19T14:36:07;12.95;;;11.85;;
46339;SDS011;47273;49.274;8.708;2022-08-19T14:38:33;12.25;;;11.15;;
46339;SDS011;47273;49.274;8.708;2022-08-19T14:41:07;12.82;;;11.48;;
46339;SDS011;47273;49.274;8.708;2022-08-19T14:43:33;12.57;;;11.38;;
46339;SDS011;47273;49.274;8.708;2022-08-19T14:45:59;12.48;;;11.43;;
46339;SDS011;47273;49.274;8.708;2022-08-19T14:48:24;12.52;;;11.10;;
46339;SDS011;47273;49.274;8.708;2022-08-19T14:50:51;12.15;;;11.07;;
46339;SDS011;47273;49.274;8.708;2022-08-19T14:53:19;12.77;;;11.57;;
46339;SDS011;47273;49.274;8.708;2022-08-19T14:55:46;12.85;;;11.65;;
46339;SDS011;47273;49.274;8.708;2022-08-19T14:58:12;14.02;;;12.55;;
46339;SDS011;47273;49.274;8.708;2022-08-19T15:00:38;12.05;;;11.05;;
46339;SDS011;47273;49.274;8.708;2022-08-19T15:03:04;12.60;;;11.10;;
46339;SDS011;47273;49.274;8.708;2022-08-19T15:05:29;13.13;;;12.02;;
46339;SDS011;47273;49.274;8.708;2022-08-19T15:07:56;16.70;;;10.88;;
46339;SDS011;47273;49.274;8.708;2022-08-19T15:10:22;12.15;;;10.95;;
46339;SDS011;47273;49.274;8.708;2022-08-19T15:12:49;12.68;;;11.38;;
46339;SDS011;47273;49.274;8.708;2022-08-19T15:15:16;11.88;;;10.77;;
46339;SDS011;47273;49.274;8.708;2022-08-19T15:17:42;12.23;;;11.23;;
46339;SDS011;47273;49.274;8.708;2022-08-19T15:20:16;12.57;;;11.38;;
46339;SDS011;47273;49.274;8.708;2022-08-19T15:22:44;12.35;;;11.25;;
46339;SDS011;47273;49.274;8.708;2022-08-19T15:25:12;12.15;;;11.00;;
46339;SDS011;47273;49.274;8.708;2022-08-19T15:27:39;11.77;;;10.68;;
46339;SDS011;47273;49.274;8.708;2022-08-19T15:30:06;11.77;;;10.77;;
46339;SDS011;47273;49.274;8.708;2022-08-19T15:32:33;11.95;;;10.80;;
46339;SDS011;47273;49.274;8.708;2022-08-19T15:35:02;11.88;;;10.88;;
46339;SDS011;47273;49.274;8.708;2022-08-19T15:37:29;12.05;;;10.95;;
46339;SDS011;47273;49.274;8.708;2022-08-19T15:39:55;12.18;;;11.10;;
46339;SDS011;47273;49.274;8.708;2022-08-19T15:42:20;12.20;;;11.10;;
46339;SDS011;47273;49.274;8.708;2022-08-19T15:44:46;12.52;;;11.20;;
46339;SDS011;47273;49.274;8.708;2022-08-19T15:47:12;11.98;;;10.98;;
46339;SDS011;47273;49.274;8.708;2022-08-19T15:49:38;11.90;;;10.80;;
46339;SDS011;47273;49.274;8.708;2022-08-19T15:52:04;12.13;;;10.80;;
46339;SDS011;47273;49.274;8.708;2022-08-19T15:54:31;11.23;;;10.13;;
46339;SDS011;47273;49.274;8.708;2022-08-19T15:56:57;12.07;;;10.98;;
46339;SDS011;47273;49.274;8.708;2022-08-19T15:59:42;11.95;;;10.85;;
46339;SDS011;47273;49.274;8.708;2022-08-19T16:02:26;11.48;;;10.48;;
46339;SDS011;47273;49.274;8.708;2022-08-19T16:05:13;10.38;;;9.48;;
46339;SDS011;47273;49.274;8.708;2022-08-19T16:08:00;11.07;;;10.05;;
46339;SDS011;47273;49.274;8.708;2022-08-19T16:10:25;11.75;;;10.30;;
46339;SDS011;47273;49.274;8.708;2022-08-19T16:12:51;11.43;;;10.23;;
46339;SDS011;47273;49.274;8.708;2022-08-19T16:15:17;11.68;;;10.55;;
46339;SDS011;47273;49.274;8.708;2022-08-19T16:17:45;11.98;;;10.88;;
46339;SDS011;47273;49.274;8.708;2022-08-19T16:20:11;12.57;;;10.52;;
46339;SDS011;47273;49.274;8.708;2022-08-19T16:22:40;11.43;;;10.30;;
46339;SDS011;47273;49.274;8.708;2022-08-19T16:25:06;11.50;;;10.50;;
46339;SDS011;47273;49.274;8.708;2022-08-19T16:27:33;11.80;;;10.73;;
46339;SDS011;47273;49.274;8.708;2022-08-19T16:29:59;11.18;;;10.27;;
46339;SDS011;47273;49.274;8.708;2022-08-19T16:32:25;12.60;;;10.80;;
46339;SDS011;47273;49.274;8.708;2022-08-19T16:34:51;11.93;;;10.52;;
46339;SDS011;47273;49.274;8.708;2022-08-19T16:37:17;11.57;;;10.57;;
46339;SDS011;47273;49.274;8.708;2022-08-19T16:39:43;11.38;;;10.25;;
46339;SDS011;47273;49.274;8.708;2022-08-19T16:42:09;11.38;;;10.38;;
46339;SDS011;47273;49.274;8.708;2022-08-19T16:44:39;12.70;;;10.48;;
46339;SDS011;47273;49.274;8.708;2022-08-19T16:47:07;11.52;;;10.52;;
46339;SDS011;47273;49.274;8.708;2022-08-19T16:49:33;11.05;;;10.05;;
46339;SDS011;47273;49.274;8.708;2022-08-19T16:51:59;10.73;;;9.73;;
46339;SDS011;47273;49.274;8.708;2022-08-19T16:54:26;12.60;;;10.25;;
46339;SDS011;47273;49.274;8.708;2022-08-19T16:56:52;11.23;;;10.13;;
46339;SDS011;47273;49.274;8.708;2022-08-19T16:59:19;12.10;;;10.77;;
46339;SDS011;47273;49.274;8.708;2022-08-19T17:01:45;14.88;;;10.50;;
46339;SDS011;47273;49.274;8.708;2022-08-19T17:04:10;11.35;;;10.25;;
46339;SDS011;47273;49.274;8.708;2022-08-19T17:06:37;11.57;;;10.35;;
46339;SDS011;47273;49.274;8.708;2022-08-19T17:09:05;11.93;;;10.75;;
46339;SDS011;47273;49.274;8.708;2022-08-19T17:11:31;11.73;;;10.57;;
46339;SDS011;47273;49.274;8.708;2022-08-19T17:13:58;10.45;;;9.45;;
46339;SDS011;47273;49.274;8.708;2022-08-19T17:16:26;12.18;;;10.52;;
46339;SDS011;47273;49.274;8.708;2022-08-19T17:18:55;11.70;;;10.60;;
46339;SDS011;47273;49.274;8.708;2022-08-19T17:21:23;16.60;;;10.55;;
46339;SDS011;47273;49.274;8.708;2022-08-19T17:23:54;11.13;;;10.18;;
46339;SDS011;47273;49.274;8.708;2022-08-19T17:26:20;13.77;;;10.75;;
46339;SDS011;47273;49.274;8.708;2022-08-19T17:28:48;11.25;;;10.15;;
46339;SDS011;47273;49.274;8.708;2022-08-19T17:31:15;10.75;;;9.73;;
46339;SDS011;47273;49.274;8.708;2022-08-19T17:33:43;14.57;;;11.52;;
46339;SDS011;47273;49.274;8.708;2022-08-19T17:36:09;12.43;;;11.30;;
46339;SDS011;47273;49.274;8.708;2022-08-19T17:38:34;11.70;;;10.70;;
46339;SDS011;47273;49.274;8.708;2022-08-19T17:41:02;11.15;;;10.02;;
46339;SDS011;47273;49.274;8.708;2022-08-19T17:43:31;11.60;;;10.60;;
46339;SDS011;47273;49.274;8.708;2022-08-19T17:46:00;11.75;;;10.75;;
46339;SDS011;47273;49.274;8.708;2022-08-19T17:48:28;11.57;;;10.48;;
46339;SDS011;47273;49.274;8.708;2022-08-19T17:51:17;12.15;;;10.80;;
46339;SDS011;47273;49.274;8.708;2022-08-19T17:53:46;11.35;;;10.35;;
46339;SDS011;47273;49.274;8.708;2022-08-19T17:56:12;13.30;;;10.43;;
46339;SDS011;47273;49.274;8.708;2022-08-19T17:58:41;11.77;;;10.68;;
46339;SDS011;47273;49.274;8.708;2022-08-19T18:01:09;11.40;;;10.40;;
46339;SDS011;47273;49.274;8.708;2022-08-19T18:03:38;10.73;;;9.75;;
46339;SDS011;47273;49.274;8.708;2022-08-19T18:06:06;11.05;;;9.95;;
46339;SDS011;47273;49.274;8.708;2022-08-19T18:08:33;12.35;;;11.15;;
46339;SDS011;47273;49.274;8.708;2022-08-19T18:11:01;14.02;;;10.23;;
46339;SDS011;47273;49.274;8.708;2022-08-19T18:13:27;12.32;;;10.25;;
46339;SDS011;47273;49.274;8.708;2022-08-19T18:15:54;10.35;;;9.30;;
46339;SDS011;47273;49.274;8.708;2022-08-19T18:18:22;10.77;;;9.40;;
46339;SDS011;47273;49.274;8.708;2022-08-19T18:20:49;11.27;;;10.18;;
46339;SDS011;47273;49.274;8.708;2022-08-19T18:23:15;10.90;;;9.80;;
46339;SDS011;47273;49.274;8.708;2022-08-19T18:25:41;11.35;;;9.63;;
46339;SDS011;47273;49.274;8.708;2022-08-19T18:28:07;10.60;;;9.60;;
46339;SDS011;47273;49.274;8.708;2022-08-19T18:30:33;11.98;;;10.00;;
46339;SDS011;47273;49.274;8.708;2022-08-19T18:32:59;11.18;;;10.05;;
46339;SDS011;47273;49.274;8.708;2022-08-19T18:35:30;12.43;;;10.25;;